Tallahassee Regional Airport
KTLH : now visible

Airfield :











YOU CAN JOIN US ON...

 
LOGIN :

Register | Disclaimer

   EN    FR    IT 

 









Legend :    VFR   Marginal VFR   IFR   Intensive IFR   Very Intensive IFR
Visi :
Ceiling :
>= 8 km
>= 3000ft
5 to 8 km
1000 to 3000 ft
1500m to 5 km
500 to 1000 ft
800 to 1500m
200 to 500 ft
< 800m
< 200 ft
Symbols :   Thunderstorms  Fog  Heavy snow  Heavy precipitations  Wind > 20 kt






- Airport Elevation : 81 ft
- IATA code : TLH


KTLH - Tallahassee Regional

CURRENT METAR :
  • 271553Z 22007KT 170V250 10SM BKN037 32/22 A2999 RMK AO2 SLP155 T03170222

EXPIRED METARs :
  • 271509Z 19006KT 10SM BKN031 31/23 A3000 RMK AO2 T03060228
  • 271453Z 22007KT 10SM BKN029 30/23 A3001 RMK AO2 SLP161 T03000228 51022
  • 271415Z 25009KT 10SM BKN026 30/23 A3001 RMK AO2 T03000233
  • 271353Z 27008KT 10SM SCT022 29/23 A3000 RMK AO2 SLP158 T02940233
  • 271253Z 25007KT 10SM CLR 28/24 A2998 RMK AO2 SLP152 T02830244
  • 271153Z 21003KT 10SM SCT016 23/22 A2995 RMK AO2 SLP139 T02330222 10233 20200 53016
  • 271132Z 19003KT 10SM SCT016 23/21 A2994 RMK AO2 T02280211

TAF KTLH
Valid from the 27 at 12:00 until the 28 at 12:00 UTC


271120Z 2712/2812 00000KT 5SM BR SCT006 BKN015
TEMPO 2712/2713 1 1/2SM BR BKN006
FM271300 22009KT P6SM BKN040
FM271700 22012G21KT P6SM VCTS SCT020 BKN035CB BKN100
FM272300 25009KT P6SM VCSH SCT007 BKN025
KZJX FIR / North America



MET'MAP, your aeronautical weather chart ! - Copyright ORBIFLY December 2007 - Disclaimer

ORBIFLY MET'MAP TEAM :

Programming & Development : Alexandra Zaïnal
Original concept : Baudouin d'Aumeries
Technical & hardware support : Manuel Goepfert
Assistance : Marc-Olivier Méhu




SOURCES & CREDITS :

   NOAA       Earth
Advisory